Terminal Aerodrome Forecast
Issued by NWS

Home | Current Version | Previous Version | Text Only | Print | Product List | Glossary On
Versions: 1 2 3 4 5 6 7 8 9 10 11 12
000
FTPA31 PHFO 062325
TAFHJH
TAF
PHJH 062325Z 0700/0724 27008KT P6SM VCSH SCT020 BKN050
     FM070300 03008KT P6SM VCSH SCT020 BKN050
     FM072000 04013G22KT P6SM VCSH SCT020 BKN035
      AMD NOT SKED 0704/0718=

USA.gov is the U.S. government's official web portal to all federal, state and local government web resources and services.